Hauptseite
METAR-TAF:

METAR-TAF

Flughäfen :

Flughafen Sliač

Banská Bystrica, Slowakei

Breite: 48-38-17N, Länge: 019-08-03E, Höhe: 318 m

Beobachtung

Neuester Wetterbericht von vor 24 Minuten, um 18:30 UTC
Wind 3 kt aus Ost/Südost, variierte zwischen Ost/Nordost und Südost
Temperatur -3°C
Luftfeuchtigkeit 80%
Luftdruck 1017 hPa
Sichtweite 10 km oder mehr
Aufgelockert bewölkt in der Höhe von 4000 ft

METAR: LZSL 181830Z 11003KT 060V140 9999 SCT040 M03/M06 Q1017

Zeit: 19:54 (18:54 UTC)

Prognose

Neuester Wetterbericht von vor 1 Stunde und 54 Minuten, um 17:00 UTC
Gültige Prognose vom 18 um 18 UTC bis 19 um 03 UTC
Wind 4 kt aus Nord/Nordost
Sichtweite 10 km oder mehr
keine Wolken unter 1500 m und keine Kumulonimbus oder Gewitterwolken

TAF: LZSL 181700Z 1818/1903 02004KT CAVOK

Wetterbeobachtungen und Prognosen von mehr als 4000 Flughäfen (METAR und TAF Bericht).

Die verfügbaren Stationen werden durch gelbe und rote Markierungen auf der Karte dargestellt.

Führen Sie die Maus auf sie, um den Namen der Station zu sehen.

Darauf klicken, um die Beobachtung von Wetterbeobachtungen und Prognosen zu sehen.

Um die Karte zu ändern : klicken Sie auf den grünen Tasten mit einem schwarzen Kreuz Zum Vergrößern, auf den grünen Button mit einem Gedankenstrich zu verkleinern, oder auf die grünen Pfeile für benachbarte Karten.


METAR-TAF: